sensor_id;sensor_type;location;lat;lon;timestamp;temperature;humidity
15617;DHT22;7908;51.688;7.130;2023-09-12T00:00:00;19.50;99.90
15617;DHT22;7908;51.688;7.130;2023-09-12T00:02:30;19.50;99.90
15617;DHT22;7908;51.688;7.130;2023-09-12T00:04:59;19.50;99.90
15617;DHT22;7908;51.688;7.130;2023-09-12T00:07:29;19.40;99.90
15617;DHT22;7908;51.688;7.130;2023-09-12T00:09:58;19.40;99.90
15617;DHT22;7908;51.688;7.130;2023-09-12T00:12:26;19.50;99.90
15617;DHT22;7908;51.688;7.130;2023-09-12T00:14:55;19.40;99.90
15617;DHT22;7908;51.688;7.130;2023-09-12T00:17:23;19.40;99.90
15617;DHT22;7908;51.688;7.130;2023-09-12T00:19:54;19.40;99.90
15617;DHT22;7908;51.688;7.130;2023-09-12T00:22:22;19.40;99.90
15617;DHT22;7908;51.688;7.130;2023-09-12T00:24:52;19.40;99.90
15617;DHT22;7908;51.688;7.130;2023-09-12T00:27:21;19.30;99.90
15617;DHT22;7908;51.688;7.130;2023-09-12T00:29:49;19.30;99.90
15617;DHT22;7908;51.688;7.130;2023-09-12T00:32:17;19.20;99.90
15617;DHT22;7908;51.688;7.130;2023-09-12T00:34:46;19.20;99.90
15617;DHT22;7908;51.688;7.130;2023-09-12T00:37:14;19.20;99.90
15617;DHT22;7908;51.688;7.130;2023-09-12T00:39:43;19.20;99.90
15617;DHT22;7908;51.688;7.130;2023-09-12T00:42:13;19.20;99.90
15617;DHT22;7908;51.688;7.130;2023-09-12T00:44:41;19.30;99.90
15617;DHT22;7908;51.688;7.130;2023-09-12T00:47:11;19.30;99.90
15617;DHT22;7908;51.688;7.130;2023-09-12T00:49:41;19.40;99.90
15617;DHT22;7908;51.688;7.130;2023-09-12T00:52:11;19.50;99.90
15617;DHT22;7908;51.688;7.130;2023-09-12T00:54:40;19.50;99.90
15617;DHT22;7908;51.688;7.130;2023-09-12T00:57:09;19.50;99.90
15617;DHT22;7908;51.688;7.130;2023-09-12T00:59:39;19.60;99.90
15617;DHT22;7908;51.688;7.130;2023-09-12T01:02:07;19.70;99.90
15617;DHT22;7908;51.688;7.130;2023-09-12T01:04:36;19.70;99.90
15617;DHT22;7908;51.688;7.130;2023-09-12T01:07:05;19.70;99.90
15617;DHT22;7908;51.688;7.130;2023-09-12T01:09:34;19.70;99.90
15617;DHT22;7908;51.688;7.130;2023-09-12T01:12:03;19.70;99.90
15617;DHT22;7908;51.688;7.130;2023-09-12T01:14:32;19.60;99.90
15617;DHT22;7908;51.688;7.130;2023-09-12T01:17:02;19.40;99.90
15617;DHT22;7908;51.688;7.130;2023-09-12T01:19:30;19.30;99.90
15617;DHT22;7908;51.688;7.130;2023-09-12T01:22:26;19.20;99.90
15617;DHT22;7908;51.688;7.130;2023-09-12T01:25:11;19.10;99.90
15617;DHT22;7908;51.688;7.130;2023-09-12T01:27:46;19.10;99.90
15617;DHT22;7908;51.688;7.130;2023-09-12T01:30:17;19.00;99.90
15617;DHT22;7908;51.688;7.130;2023-09-12T01:32:46;18.90;99.90
15617;DHT22;7908;51.688;7.130;2023-09-12T01:35:15;18.90;99.90
15617;DHT22;7908;51.688;7.130;2023-09-12T01:37:44;18.90;99.90
15617;DHT22;7908;51.688;7.130;2023-09-12T01:40:12;18.90;99.90
15617;DHT22;7908;51.688;7.130;2023-09-12T01:42:46;18.80;99.90
15617;DHT22;7908;51.688;7.130;2023-09-12T01:45:17;18.90;99.90
15617;DHT22;7908;51.688;7.130;2023-09-12T01:47:50;18.80;99.90
15617;DHT22;7908;51.688;7.130;2023-09-12T01:50:19;18.80;99.90
15617;DHT22;7908;51.688;7.130;2023-09-12T01:52:49;18.80;99.90
15617;DHT22;7908;51.688;7.130;2023-09-12T01:55:18;18.80;99.90
15617;DHT22;7908;51.688;7.130;2023-09-12T01:57:49;18.70;99.90
15617;DHT22;7908;51.688;7.130;2023-09-12T02:00:18;18.70;99.90
15617;DHT22;7908;51.688;7.130;2023-09-12T02:02:47;18.70;99.90
15617;DHT22;7908;51.688;7.130;2023-09-12T02:05:16;18.70;99.90
15617;DHT22;7908;51.688;7.130;2023-09-12T02:07:48;18.70;99.90
15617;DHT22;7908;51.688;7.130;2023-09-12T02:10:17;18.80;99.90
15617;DHT22;7908;51.688;7.130;2023-09-12T02:12:45;18.80;99.90
15617;DHT22;7908;51.688;7.130;2023-09-12T02:15:15;18.80;99.90
15617;DHT22;7908;51.688;7.130;2023-09-12T02:17:44;18.80;99.90
15617;DHT22;7908;51.688;7.130;2023-09-12T02:20:12;18.70;99.90
15617;DHT22;7908;51.688;7.130;2023-09-12T02:22:41;18.70;99.90
15617;DHT22;7908;51.688;7.130;2023-09-12T02:25:09;18.70;99.90
15617;DHT22;7908;51.688;7.130;2023-09-12T02:27:38;18.70;99.90
15617;DHT22;7908;51.688;7.130;2023-09-12T02:30:07;18.70;99.90
15617;DHT22;7908;51.688;7.130;2023-09-12T02:32:37;18.70;99.90
15617;DHT22;7908;51.688;7.130;2023-09-12T02:35:06;18.70;99.90
15617;DHT22;7908;51.688;7.130;2023-09-12T02:37:35;18.70;99.90
15617;DHT22;7908;51.688;7.130;2023-09-12T02:40:04;18.60;99.90
15617;DHT22;7908;51.688;7.130;2023-09-12T02:42:34;18.60;99.90
15617;DHT22;7908;51.688;7.130;2023-09-12T02:45:03;18.60;99.90
15617;DHT22;7908;51.688;7.130;2023-09-12T02:47:31;18.70;99.90
15617;DHT22;7908;51.688;7.130;2023-09-12T02:50:01;18.70;99.90
15617;DHT22;7908;51.688;7.130;2023-09-12T02:52:30;18.70;99.90
15617;DHT22;7908;51.688;7.130;2023-09-12T02:54:58;18.70;99.90
15617;DHT22;7908;51.688;7.130;2023-09-12T02:57:27;18.70;99.90
15617;DHT22;7908;51.688;7.130;2023-09-12T02:59:55;18.70;99.90
15617;DHT22;7908;51.688;7.130;2023-09-12T03:02:24;18.70;99.90
15617;DHT22;7908;51.688;7.130;2023-09-12T03:04:52;18.70;99.90
15617;DHT22;7908;51.688;7.130;2023-09-12T03:07:22;18.70;99.90
15617;DHT22;7908;51.688;7.130;2023-09-12T03:09:51;18.70;99.90
15617;DHT22;7908;51.688;7.130;2023-09-12T03:12:19;18.70;99.90
15617;DHT22;7908;51.688;7.130;2023-09-12T03:14:51;18.70;99.90
15617;DHT22;7908;51.688;7.130;2023-09-12T03:17:19;18.70;99.90
15617;DHT22;7908;51.688;7.130;2023-09-12T03:19:48;18.70;99.90
15617;DHT22;7908;51.688;7.130;2023-09-12T03:22:16;18.70;99.90
15617;DHT22;7908;51.688;7.130;2023-09-12T03:28:15;18.70;99.90
15617;DHT22;7908;51.688;7.130;2023-09-12T03:34:34;18.50;99.90
15617;DHT22;7908;51.688;7.130;2023-09-12T03:37:04;18.50;99.90
15617;DHT22;7908;51.688;7.130;2023-09-12T03:39:33;18.50;99.90
15617;DHT22;7908;51.688;7.130;2023-09-12T03:42:02;18.60;99.90
15617;DHT22;7908;51.688;7.130;2023-09-12T03:44:33;18.60;99.90
15617;DHT22;7908;51.688;7.130;2023-09-12T03:47:02;18.60;99.90
15617;DHT22;7908;51.688;7.130;2023-09-12T03:49:31;18.60;99.90
15617;DHT22;7908;51.688;7.130;2023-09-12T03:52:00;18.60;99.90
15617;DHT22;7908;51.688;7.130;2023-09-12T03:54:28;18.60;99.90
15617;DHT22;7908;51.688;7.130;2023-09-12T03:56:57;18.60;99.90
15617;DHT22;7908;51.688;7.130;2023-09-12T03:59:25;18.50;99.90
15617;DHT22;7908;51.688;7.130;2023-09-12T04:01:55;18.50;99.90
15617;DHT22;7908;51.688;7.130;2023-09-12T04:04:23;18.50;99.90
15617;DHT22;7908;51.688;7.130;2023-09-12T04:06:52;18.40;99.90
15617;DHT22;7908;51.688;7.130;2023-09-12T04:09:21;18.40;99.90
15617;DHT22;7908;51.688;7.130;2023-09-12T04:11:50;18.40;99.90
15617;DHT22;7908;51.688;7.130;2023-09-12T04:14:21;18.40;99.90
15617;DHT22;7908;51.688;7.130;2023-09-12T04:16:50;18.30;99.90
15617;DHT22;7908;51.688;7.130;2023-09-12T04:19:19;18.30;99.90
15617;DHT22;7908;51.688;7.130;2023-09-12T04:21:48;18.30;99.90
15617;DHT22;7908;51.688;7.130;2023-09-12T04:24:16;18.20;99.90
15617;DHT22;7908;51.688;7.130;2023-09-12T04:26:45;18.20;99.90
15617;DHT22;7908;51.688;7.130;2023-09-12T04:29:14;18.20;99.90
15617;DHT22;7908;51.688;7.130;2023-09-12T04:31:42;18.10;99.90
15617;DHT22;7908;51.688;7.130;2023-09-12T04:34:11;18.10;99.90
15617;DHT22;7908;51.688;7.130;2023-09-12T04:36:41;18.10;99.90
15617;DHT22;7908;51.688;7.130;2023-09-12T04:39:09;18.10;99.90
15617;DHT22;7908;51.688;7.130;2023-09-12T04:41:38;18.10;99.90
15617;DHT22;7908;51.688;7.130;2023-09-12T04:44:06;18.10;99.90
15617;DHT22;7908;51.688;7.130;2023-09-12T04:46:35;18.10;99.90
15617;DHT22;7908;51.688;7.130;2023-09-12T04:49:03;18.10;99.90
15617;DHT22;7908;51.688;7.130;2023-09-12T04:51:32;18.10;99.90
15617;DHT22;7908;51.688;7.130;2023-09-12T04:54:02;18.10;99.90
15617;DHT22;7908;51.688;7.130;2023-09-12T04:56:31;18.10;99.90
15617;DHT22;7908;51.688;7.130;2023-09-12T04:58:59;18.10;99.90
15617;DHT22;7908;51.688;7.130;2023-09-12T05:01:28;18.10;99.90
15617;DHT22;7908;51.688;7.130;2023-09-12T05:03:56;18.10;99.90
15617;DHT22;7908;51.688;7.130;2023-09-12T05:06:25;18.10;99.90
15617;DHT22;7908;51.688;7.130;2023-09-12T05:08:54;18.10;99.90
15617;DHT22;7908;51.688;7.130;2023-09-12T05:11:24;18.20;99.90
15617;DHT22;7908;51.688;7.130;2023-09-12T05:13:53;18.20;99.90
15617;DHT22;7908;51.688;7.130;2023-09-12T05:16:22;18.20;99.90
15617;DHT22;7908;51.688;7.130;2023-09-12T05:18:50;18.20;99.90
15617;DHT22;7908;51.688;7.130;2023-09-12T05:21:20;18.30;99.90
15617;DHT22;7908;51.688;7.130;2023-09-12T05:23:48;18.30;99.90
15617;DHT22;7908;51.688;7.130;2023-09-12T05:26:17;18.30;99.90
15617;DHT22;7908;51.688;7.130;2023-09-12T05:28:47;18.30;99.90
15617;DHT22;7908;51.688;7.130;2023-09-12T05:31:16;18.30;99.90
15617;DHT22;7908;51.688;7.130;2023-09-12T05:33:44;18.30;99.90
15617;DHT22;7908;51.688;7.130;2023-09-12T05:36:12;18.30;99.90
15617;DHT22;7908;51.688;7.130;2023-09-12T05:38:41;18.30;99.90
15617;DHT22;7908;51.688;7.130;2023-09-12T05:41:10;18.30;99.90
15617;DHT22;7908;51.688;7.130;2023-09-12T05:43:38;18.30;99.90
15617;DHT22;7908;51.688;7.130;2023-09-12T05:46:08;18.30;99.90
15617;DHT22;7908;51.688;7.130;2023-09-12T05:48:37;18.30;99.90
15617;DHT22;7908;51.688;7.130;2023-09-12T05:51:09;18.30;99.90
15617;DHT22;7908;51.688;7.130;2023-09-12T05:53:39;18.40;99.90
15617;DHT22;7908;51.688;7.130;2023-09-12T05:56:07;18.30;99.90
15617;DHT22;7908;51.688;7.130;2023-09-12T05:58:37;18.30;99.90
15617;DHT22;7908;51.688;7.130;2023-09-12T06:01:11;18.30;99.90
15617;DHT22;7908;51.688;7.130;2023-09-12T06:03:46;18.30;99.90
15617;DHT22;7908;51.688;7.130;2023-09-12T06:06:16;18.30;99.90
15617;DHT22;7908;51.688;7.130;2023-09-12T06:08:46;18.30;99.90
15617;DHT22;7908;51.688;7.130;2023-09-12T06:11:15;18.30;99.90
15617;DHT22;7908;51.688;7.130;2023-09-12T06:13:43;18.40;99.90
15617;DHT22;7908;51.688;7.130;2023-09-12T06:16:13;18.40;99.90
15617;DHT22;7908;51.688;7.130;2023-09-12T06:18:42;18.30;99.90
15617;DHT22;7908;51.688;7.130;2023-09-12T06:21:11;18.30;99.90
15617;DHT22;7908;51.688;7.130;2023-09-12T06:23:40;18.40;99.90
15617;DHT22;7908;51.688;7.130;2023-09-12T06:26:11;18.40;99.90
15617;DHT22;7908;51.688;7.130;2023-09-12T06:28:41;18.40;99.90
15617;DHT22;7908;51.688;7.130;2023-09-12T06:31:10;18.40;99.90
15617;DHT22;7908;51.688;7.130;2023-09-12T06:33:40;18.40;99.90
15617;DHT22;7908;51.688;7.130;2023-09-12T06:36:09;18.40;99.90
15617;DHT22;7908;51.688;7.130;2023-09-12T06:38:38;18.40;99.90
15617;DHT22;7908;51.688;7.130;2023-09-12T06:41:07;18.40;99.90
15617;DHT22;7908;51.688;7.130;2023-09-12T06:43:36;18.50;99.90
15617;DHT22;7908;51.688;7.130;2023-09-12T06:46:05;18.50;99.90
15617;DHT22;7908;51.688;7.130;2023-09-12T06:48:33;18.60;99.90
15617;DHT22;7908;51.688;7.130;2023-09-12T06:51:06;18.60;99.90
15617;DHT22;7908;51.688;7.130;2023-09-12T06:53:43;18.60;99.90
15617;DHT22;7908;51.688;7.130;2023-09-12T06:56:12;18.60;99.90
15617;DHT22;7908;51.688;7.130;2023-09-12T06:58:43;18.50;99.90
15617;DHT22;7908;51.688;7.130;2023-09-12T07:01:12;18.50;99.90
15617;DHT22;7908;51.688;7.130;2023-09-12T07:03:44;18.50;99.90
15617;DHT22;7908;51.688;7.130;2023-09-12T07:06:15;18.50;99.90
15617;DHT22;7908;51.688;7.130;2023-09-12T07:08:44;18.50;99.90
15617;DHT22;7908;51.688;7.130;2023-09-12T07:11:14;18.50;99.90
15617;DHT22;7908;51.688;7.130;2023-09-12T07:13:42;18.50;99.90
15617;DHT22;7908;51.688;7.130;2023-09-12T07:16:13;18.50;99.90
15617;DHT22;7908;51.688;7.130;2023-09-12T07:18:46;18.50;99.90
15617;DHT22;7908;51.688;7.130;2023-09-12T07:21:18;18.50;99.90
15617;DHT22;7908;51.688;7.130;2023-09-12T07:23:48;18.50;99.90
15617;DHT22;7908;51.688;7.130;2023-09-12T07:26:18;18.40;99.90
15617;DHT22;7908;51.688;7.130;2023-09-12T07:28:47;18.40;99.90
15617;DHT22;7908;51.688;7.130;2023-09-12T07:31:18;18.40;99.90
15617;DHT22;7908;51.688;7.130;2023-09-12T07:33:49;18.40;99.90
15617;DHT22;7908;51.688;7.130;2023-09-12T07:36:24;18.50;99.90
15617;DHT22;7908;51.688;7.130;2023-09-12T07:38:54;18.50;99.90
15617;DHT22;7908;51.688;7.130;2023-09-12T07:41:22;18.50;99.90
15617;DHT22;7908;51.688;7.130;2023-09-12T07:43:52;18.60;99.90
15617;DHT22;7908;51.688;7.130;2023-09-12T07:46:20;18.60;99.90
15617;DHT22;7908;51.688;7.130;2023-09-12T07:48:51;18.60;99.90
15617;DHT22;7908;51.688;7.130;2023-09-12T07:51:23;18.60;99.90
15617;DHT22;7908;51.688;7.130;2023-09-12T07:53:53;18.60;99.90
15617;DHT22;7908;51.688;7.130;2023-09-12T07:56:22;18.60;99.90
15617;DHT22;7908;51.688;7.130;2023-09-12T07:58:57;18.60;99.90
15617;DHT22;7908;51.688;7.130;2023-09-12T08:01:26;18.50;99.90
15617;DHT22;7908;51.688;7.130;2023-09-12T08:03:56;18.50;99.90
15617;DHT22;7908;51.688;7.130;2023-09-12T08:06:27;18.50;99.90
15617;DHT22;7908;51.688;7.130;2023-09-12T08:09:01;18.60;99.90
15617;DHT22;7908;51.688;7.130;2023-09-12T08:11:30;18.70;99.90
15617;DHT22;7908;51.688;7.130;2023-09-12T08:14:00;18.70;99.90
15617;DHT22;7908;51.688;7.130;2023-09-12T08:16:28;18.70;99.90
15617;DHT22;7908;51.688;7.130;2023-09-12T08:18:58;18.80;99.90
15617;DHT22;7908;51.688;7.130;2023-09-12T08:21:29;18.80;99.90
15617;DHT22;7908;51.688;7.130;2023-09-12T08:23:58;18.90;99.90
15617;DHT22;7908;51.688;7.130;2023-09-12T08:26:27;18.90;99.90
15617;DHT22;7908;51.688;7.130;2023-09-12T08:28:59;18.90;99.90
15617;DHT22;7908;51.688;7.130;2023-09-12T08:31:30;19.00;99.90
15617;DHT22;7908;51.688;7.130;2023-09-12T08:33:59;19.00;99.90
15617;DHT22;7908;51.688;7.130;2023-09-12T08:36:30;19.00;99.90
15617;DHT22;7908;51.688;7.130;2023-09-12T08:39:14;19.00;99.90
15617;DHT22;7908;51.688;7.130;2023-09-12T08:41:44;19.00;99.90
15617;DHT22;7908;51.688;7.130;2023-09-12T08:44:14;19.10;99.90
15617;DHT22;7908;51.688;7.130;2023-09-12T08:46:44;19.10;99.90
15617;DHT22;7908;51.688;7.130;2023-09-12T08:49:14;19.10;99.90
15617;DHT22;7908;51.688;7.130;2023-09-12T08:51:45;19.10;99.90
15617;DHT22;7908;51.688;7.130;2023-09-12T08:54:14;19.10;99.90
15617;DHT22;7908;51.688;7.130;2023-09-12T08:56:44;19.20;99.90
15617;DHT22;7908;51.688;7.130;2023-09-12T08:59:14;19.20;99.90
15617;DHT22;7908;51.688;7.130;2023-09-12T09:01:44;19.20;99.90
15617;DHT22;7908;51.688;7.130;2023-09-12T09:04:14;19.30;99.90
15617;DHT22;7908;51.688;7.130;2023-09-12T09:06:45;19.40;99.90
15617;DHT22;7908;51.688;7.130;2023-09-12T09:09:14;19.30;99.90
15617;DHT22;7908;51.688;7.130;2023-09-12T09:11:44;19.30;99.90
15617;DHT22;7908;51.688;7.130;2023-09-12T09:14:13;19.40;99.90
15617;DHT22;7908;51.688;7.130;2023-09-12T09:16:44;19.40;99.90
15617;DHT22;7908;51.688;7.130;2023-09-12T09:19:14;19.40;99.90
15617;DHT22;7908;51.688;7.130;2023-09-12T09:21:45;19.50;99.90
15617;DHT22;7908;51.688;7.130;2023-09-12T09:24:21;19.50;99.90
15617;DHT22;7908;51.688;7.130;2023-09-12T09:26:52;19.60;99.90
15617;DHT22;7908;51.688;7.130;2023-09-12T09:29:27;19.50;99.90
15617;DHT22;7908;51.688;7.130;2023-09-12T09:32:02;19.50;99.90
15617;DHT22;7908;51.688;7.130;2023-09-12T09:34:39;19.60;99.90
15617;DHT22;7908;51.688;7.130;2023-09-12T09:37:17;19.70;99.90
15617;DHT22;7908;51.688;7.130;2023-09-12T09:39:48;19.70;99.90
15617;DHT22;7908;51.688;7.130;2023-09-12T09:42:20;19.80;99.90
15617;DHT22;7908;51.688;7.130;2023-09-12T09:44:50;19.90;99.90
15617;DHT22;7908;51.688;7.130;2023-09-12T09:47:22;20.10;99.90
15617;DHT22;7908;51.688;7.130;2023-09-12T09:49:51;20.10;99.90
15617;DHT22;7908;51.688;7.130;2023-09-12T09:52:28;20.20;99.90
15617;DHT22;7908;51.688;7.130;2023-09-12T09:54:57;20.10;99.90
15617;DHT22;7908;51.688;7.130;2023-09-12T09:57:28;20.10;99.90
15617;DHT22;7908;51.688;7.130;2023-09-12T09:59:59;20.10;99.90
15617;DHT22;7908;51.688;7.130;2023-09-12T10:02:30;20.10;99.90
15617;DHT22;7908;51.688;7.130;2023-09-12T10:05:04;20.10;99.90
15617;DHT22;7908;51.688;7.130;2023-09-12T10:07:38;20.00;99.90
15617;DHT22;7908;51.688;7.130;2023-09-12T10:10:10;20.10;99.90
15617;DHT22;7908;51.688;7.130;2023-09-12T10:12:45;20.20;99.90
15617;DHT22;7908;51.688;7.130;2023-09-12T10:15:19;20.30;99.90
15617;DHT22;7908;51.688;7.130;2023-09-12T10:17:58;20.30;99.90
15617;DHT22;7908;51.688;7.130;2023-09-12T10:20:56;20.40;99.90
15617;DHT22;7908;51.688;7.130;2023-09-12T10:23:36;20.50;99.90
15617;DHT22;7908;51.688;7.130;2023-09-12T10:26:13;20.50;99.90
15617;DHT22;7908;51.688;7.130;2023-09-12T10:28:46;20.40;99.90
15617;DHT22;7908;51.688;7.130;2023-09-12T10:31:20;20.40;99.90
15617;DHT22;7908;51.688;7.130;2023-09-12T10:33:55;20.40;99.90
15617;DHT22;7908;51.688;7.130;2023-09-12T10:36:28;20.40;99.90
15617;DHT22;7908;51.688;7.130;2023-09-12T10:39:07;20.40;99.90
15617;DHT22;7908;51.688;7.130;2023-09-12T10:41:41;20.50;99.90
15617;DHT22;7908;51.688;7.130;2023-09-12T10:44:11;20.60;99.90
15617;DHT22;7908;51.688;7.130;2023-09-12T10:46:46;20.80;99.90
15617;DHT22;7908;51.688;7.130;2023-09-12T10:49:19;20.80;99.90
15617;DHT22;7908;51.688;7.130;2023-09-12T10:51:51;20.80;99.90
15617;DHT22;7908;51.688;7.130;2023-09-12T10:54:37;20.80;99.90
15617;DHT22;7908;51.688;7.130;2023-09-12T10:57:24;20.80;99.90
15617;DHT22;7908;51.688;7.130;2023-09-12T11:00:11;20.90;99.90
15617;DHT22;7908;51.688;7.130;2023-09-12T11:02:41;20.90;99.90
15617;DHT22;7908;51.688;7.130;2023-09-12T11:05:36;21.00;99.90
15617;DHT22;7908;51.688;7.130;2023-09-12T11:08:07;21.00;99.90
15617;DHT22;7908;51.688;7.130;2023-09-12T11:10:39;21.10;99.90
15617;DHT22;7908;51.688;7.130;2023-09-12T11:13:19;21.10;99.90
15617;DHT22;7908;51.688;7.130;2023-09-12T11:16:09;21.20;99.90
15617;DHT22;7908;51.688;7.130;2023-09-12T11:19:12;21.30;99.90
15617;DHT22;7908;51.688;7.130;2023-09-12T11:21:45;21.30;99.90
15617;DHT22;7908;51.688;7.130;2023-09-12T11:24:15;21.30;99.90
15617;DHT22;7908;51.688;7.130;2023-09-12T11:27:00;21.30;99.90
15617;DHT22;7908;51.688;7.130;2023-09-12T11:29:35;21.30;99.90
15617;DHT22;7908;51.688;7.130;2023-09-12T11:32:07;21.40;99.90
15617;DHT22;7908;51.688;7.130;2023-09-12T11:34:40;21.50;99.90
15617;DHT22;7908;51.688;7.130;2023-09-12T11:37:09;21.60;99.90
15617;DHT22;7908;51.688;7.130;2023-09-12T11:39:39;21.80;99.90
15617;DHT22;7908;51.688;7.130;2023-09-12T11:42:11;21.80;99.90
15617;DHT22;7908;51.688;7.130;2023-09-12T11:44:44;21.70;99.90
15617;DHT22;7908;51.688;7.130;2023-09-12T11:47:13;21.50;99.90
15617;DHT22;7908;51.688;7.130;2023-09-12T11:49:46;21.40;99.90
15617;DHT22;7908;51.688;7.130;2023-09-12T11:52:15;21.50;99.90
15617;DHT22;7908;51.688;7.130;2023-09-12T11:54:45;21.50;99.90
15617;DHT22;7908;51.688;7.130;2023-09-12T11:57:16;21.40;99.90
15617;DHT22;7908;51.688;7.130;2023-09-12T11:59:48;21.50;99.90
15617;DHT22;7908;51.688;7.130;2023-09-12T12:02:30;21.50;99.90
15617;DHT22;7908;51.688;7.130;2023-09-12T12:05:00;21.60;99.90
15617;DHT22;7908;51.688;7.130;2023-09-12T12:07:36;21.50;99.90
15617;DHT22;7908;51.688;7.130;2023-09-12T12:10:06;21.60;99.90
15617;DHT22;7908;51.688;7.130;2023-09-12T12:12:41;21.60;99.90
15617;DHT22;7908;51.688;7.130;2023-09-12T12:15:21;21.60;99.90
15617;DHT22;7908;51.688;7.130;2023-09-12T12:17:54;21.60;99.90
15617;DHT22;7908;51.688;7.130;2023-09-12T12:20:23;21.50;99.90
15617;DHT22;7908;51.688;7.130;2023-09-12T12:22:53;21.30;99.90
15617;DHT22;7908;51.688;7.130;2023-09-12T12:25:22;21.40;99.90
15617;DHT22;7908;51.688;7.130;2023-09-12T12:28:05;21.40;99.90
15617;DHT22;7908;51.688;7.130;2023-09-12T12:30:36;21.40;99.90
15617;DHT22;7908;51.688;7.130;2023-09-12T12:33:13;21.40;99.90
15617;DHT22;7908;51.688;7.130;2023-09-12T12:36:04;21.30;99.90
15617;DHT22;7908;51.688;7.130;2023-09-12T12:38:38;21.40;99.90
15617;DHT22;7908;51.688;7.130;2023-09-12T12:41:30;21.40;99.90
15617;DHT22;7908;51.688;7.130;2023-09-12T12:44:17;21.50;99.90
15617;DHT22;7908;51.688;7.130;2023-09-12T12:46:51;21.40;99.90
15617;DHT22;7908;51.688;7.130;2023-09-12T12:49:22;21.50;99.90
15617;DHT22;7908;51.688;7.130;2023-09-12T12:51:53;21.60;99.90
15617;DHT22;7908;51.688;7.130;2023-09-12T12:54:25;21.70;99.90
15617;DHT22;7908;51.688;7.130;2023-09-12T12:56:58;21.70;99.90
15617;DHT22;7908;51.688;7.130;2023-09-12T12:59:28;21.80;99.90
15617;DHT22;7908;51.688;7.130;2023-09-12T13:02:04;21.80;99.90
15617;DHT22;7908;51.688;7.130;2023-09-12T13:04:39;21.70;99.90
15617;DHT22;7908;51.688;7.130;2023-09-12T13:07:11;21.70;99.90
15617;DHT22;7908;51.688;7.130;2023-09-12T13:09:40;21.70;99.90
15617;DHT22;7908;51.688;7.130;2023-09-12T13:12:12;21.70;99.90
15617;DHT22;7908;51.688;7.130;2023-09-12T13:14:44;21.80;99.90
15617;DHT22;7908;51.688;7.130;2023-09-12T13:17:13;21.70;99.90
15617;DHT22;7908;51.688;7.130;2023-09-12T13:19:47;21.70;99.90
15617;DHT22;7908;51.688;7.130;2023-09-12T13:22:20;21.70;99.90
15617;DHT22;7908;51.688;7.130;2023-09-12T13:24:53;21.80;99.90
15617;DHT22;7908;51.688;7.130;2023-09-12T13:27:30;21.90;99.90
15617;DHT22;7908;51.688;7.130;2023-09-12T13:30:03;21.90;99.90
15617;DHT22;7908;51.688;7.130;2023-09-12T13:32:35;22.00;99.90
15617;DHT22;7908;51.688;7.130;2023-09-12T13:35:12;22.00;99.90
15617;DHT22;7908;51.688;7.130;2023-09-12T13:37:55;22.00;99.90
15617;DHT22;7908;51.688;7.130;2023-09-12T13:40:27;21.90;99.90
15617;DHT22;7908;51.688;7.130;2023-09-12T13:42:58;21.90;99.90
15617;DHT22;7908;51.688;7.130;2023-09-12T13:45:42;21.90;99.90
15617;DHT22;7908;51.688;7.130;2023-09-12T13:48:13;21.80;99.90
15617;DHT22;7908;51.688;7.130;2023-09-12T13:50:51;21.80;99.90
15617;DHT22;7908;51.688;7.130;2023-09-12T13:53:22;21.90;99.90
15617;DHT22;7908;51.688;7.130;2023-09-12T13:55:51;21.90;99.90
15617;DHT22;7908;51.688;7.130;2023-09-12T13:58:23;21.90;99.90
15617;DHT22;7908;51.688;7.130;2023-09-12T14:04:06;21.90;99.90
15617;DHT22;7908;51.688;7.130;2023-09-12T14:06:37;21.90;99.90
15617;DHT22;7908;51.688;7.130;2023-09-12T14:09:14;21.90;99.90
15617;DHT22;7908;51.688;7.130;2023-09-12T14:11:52;21.80;99.90
15617;DHT22;7908;51.688;7.130;2023-09-12T14:14:33;21.80;99.90
15617;DHT22;7908;51.688;7.130;2023-09-12T14:17:09;21.90;99.90
15617;DHT22;7908;51.688;7.130;2023-09-12T14:19:41;21.80;99.90
15617;DHT22;7908;51.688;7.130;2023-09-12T14:22:11;21.90;99.90
15617;DHT22;7908;51.688;7.130;2023-09-12T14:24:45;21.90;99.90
15617;DHT22;7908;51.688;7.130;2023-09-12T14:27:17;21.90;99.90
15617;DHT22;7908;51.688;7.130;2023-09-12T14:29:53;21.90;99.90
15617;DHT22;7908;51.688;7.130;2023-09-12T14:32:28;21.90;99.90
15617;DHT22;7908;51.688;7.130;2023-09-12T14:35:05;21.90;99.90
15617;DHT22;7908;51.688;7.130;2023-09-12T14:37:39;21.90;99.90
15617;DHT22;7908;51.688;7.130;2023-09-12T14:40:16;21.90;99.90
15617;DHT22;7908;51.688;7.130;2023-09-12T14:42:48;21.90;99.90
15617;DHT22;7908;51.688;7.130;2023-09-12T14:45:18;21.80;99.90
15617;DHT22;7908;51.688;7.130;2023-09-12T14:47:50;21.90;99.90
15617;DHT22;7908;51.688;7.130;2023-09-12T14:50:26;21.80;99.90
15617;DHT22;7908;51.688;7.130;2023-09-12T14:53:10;21.80;99.90
15617;DHT22;7908;51.688;7.130;2023-09-12T14:55:41;21.80;99.90
15617;DHT22;7908;51.688;7.130;2023-09-12T14:58:09;21.80;99.90
15617;DHT22;7908;51.688;7.130;2023-09-12T15:00:42;21.90;99.90
15617;DHT22;7908;51.688;7.130;2023-09-12T15:03:13;21.80;99.90
15617;DHT22;7908;51.688;7.130;2023-09-12T15:05:42;21.80;99.90
15617;DHT22;7908;51.688;7.130;2023-09-12T15:08:14;21.80;99.90
15617;DHT22;7908;51.688;7.130;2023-09-12T15:10:52;21.70;99.90
15617;DHT22;7908;51.688;7.130;2023-09-12T15:13:22;21.70;99.90
15617;DHT22;7908;51.688;7.130;2023-09-12T15:15:52;21.60;99.90
15617;DHT22;7908;51.688;7.130;2023-09-12T15:18:24;21.60;99.90
15617;DHT22;7908;51.688;7.130;2023-09-12T15:20:53;21.60;99.90
15617;DHT22;7908;51.688;7.130;2023-09-12T15:23:24;21.60;99.90
15617;DHT22;7908;51.688;7.130;2023-09-12T15:25:59;21.60;99.90
15617;DHT22;7908;51.688;7.130;2023-09-12T15:28:29;21.60;99.90
15617;DHT22;7908;51.688;7.130;2023-09-12T15:31:01;21.70;99.90
15617;DHT22;7908;51.688;7.130;2023-09-12T15:33:35;21.70;99.90
15617;DHT22;7908;51.688;7.130;2023-09-12T15:36:11;21.70;99.90
15617;DHT22;7908;51.688;7.130;2023-09-12T15:38:42;21.70;99.90
15617;DHT22;7908;51.688;7.130;2023-09-12T15:41:13;21.80;99.90
15617;DHT22;7908;51.688;7.130;2023-09-12T15:43:45;21.80;99.90
15617;DHT22;7908;51.688;7.130;2023-09-12T15:46:16;21.80;99.90
15617;DHT22;7908;51.688;7.130;2023-09-12T15:49:05;21.80;99.90
15617;DHT22;7908;51.688;7.130;2023-09-12T15:51:41;21.80;99.90
15617;DHT22;7908;51.688;7.130;2023-09-12T15:54:10;21.80;99.90
15617;DHT22;7908;51.688;7.130;2023-09-12T15:56:44;21.80;99.90
15617;DHT22;7908;51.688;7.130;2023-09-12T15:59:19;21.80;99.90
15617;DHT22;7908;51.688;7.130;2023-09-12T16:01:50;21.80;99.90
15617;DHT22;7908;51.688;7.130;2023-09-12T16:04:27;21.80;99.90
15617;DHT22;7908;51.688;7.130;2023-09-12T16:07:06;21.90;99.90
15617;DHT22;7908;51.688;7.130;2023-09-12T16:09:37;21.80;99.90
15617;DHT22;7908;51.688;7.130;2023-09-12T16:12:11;21.80;99.90
15617;DHT22;7908;51.688;7.130;2023-09-12T16:14:40;21.80;99.90
15617;DHT22;7908;51.688;7.130;2023-09-12T16:17:15;21.80;99.90
15617;DHT22;7908;51.688;7.130;2023-09-12T16:19:50;21.80;99.90
15617;DHT22;7908;51.688;7.130;2023-09-12T16:22:21;21.80;99.90